Time;durP1;ratioP1;P1;durP2;ratioP2;P2;SDS_P1;SDS_P2;PMS_P1;PMS_P2;Temp;Humidity;BMP_temperature;BMP_pressure;BME280_temperature;BME280_humidity;BME280_pressure;Samples;Min_cycle;Max_cycle;Signal;HPM_P1;HPM_P2
2021/10/11 00:00:37;;;;;;;18.60;8.50;;;;;;;;;;4113652;28;20117;-77
2021/10/11 00:02:38;;;;;;;17.92;7.95;;;;;;;;;;4122191;28;20062;-76
2021/10/11 00:04:40;;;;;;;13.32;7.32;;;;;;;;;;4103682;28;20643;-78
2021/10/11 00:06:41;;;;;;;22.95;8.23;;;;;;;;;;4108203;28;20092;-78
2021/10/11 00:08:42;;;;;;;25.85;7.85;;;;;;;;;;4112890;28;20066;-76
2021/10/11 00:10:43;;;;;;;17.55;8.18;;;;;;;;;;4109933;28;20038;-78
2021/10/11 00:12:44;;;;;;;19.92;9.07;;;;;;;;;;4094199;28;20043;-78
2021/10/11 00:14:45;;;;;;;24.30;8.25;;;;;;;;;;4110068;28;20039;-76
2021/10/11 00:16:47;;;;;;;17.08;7.75;;;;;;;;;;4114762;28;20459;-79
2021/10/11 00:18:48;;;;;;;15.45;7.88;;;;;;;;;;4112143;28;20046;-76
2021/10/11 00:20:49;;;;;;;21.10;9.00;;;;;;;;;;4120979;28;20053;-80
2021/10/11 00:22:50;;;;;;;19.13;8.35;;;;;;;;;;4111430;28;20043;-78
2021/10/11 00:24:51;;;;;;;16.38;7.60;;;;;;;;;;4125548;28;20109;-79
2021/10/11 00:26:52;;;;;;;14.38;6.97;;;;;;;;;;4114076;28;20031;-77
2021/10/11 00:28:53;;;;;;;16.90;7.47;;;;;;;;;;4111913;28;20384;-78
2021/10/11 00:30:54;;;;;;;19.08;7.47;;;;;;;;;;4112612;28;20055;-79
2021/10/11 00:32:55;;;;;;;14.60;7.22;;;;;;;;;;4108776;28;20541;-79
2021/10/11 00:34:57;;;;;;;17.63;7.60;;;;;;;;;;4111498;28;20055;-79
2021/10/11 00:36:58;;;;;;;26.40;8.23;;;;;;;;;;4123626;28;20510;-79
2021/10/11 00:38:59;;;;;;;25.17;7.78;;;;;;;;;;4113703;28;20455;-80
2021/10/11 00:41:00;;;;;;;19.30;7.70;;;;;;;;;;4127104;28;20069;-78
2021/10/11 00:43:02;;;;;;;19.48;7.60;;;;;;;;;;4113615;28;20074;-78
2021/10/11 00:45:05;;;;;;;20.70;8.35;;;;;;;;;;4097027;28;20114;-79
2021/10/11 00:47:06;;;;;;;15.68;7.03;;;;;;;;;;4114424;28;20153;-78
2021/10/11 00:49:07;;;;;;;15.45;7.40;;;;;;;;;;4115419;28;20034;-79
2021/10/11 00:51:08;;;;;;;15.65;7.22;;;;;;;;;;4115825;28;20592;-79
2021/10/11 00:53:10;;;;;;;21.02;7.72;;;;;;;;;;4131232;28;20042;-79
2021/10/11 00:55:11;;;;;;;18.70;7.60;;;;;;;;;;4116691;28;20041;-78
2021/10/11 00:57:12;;;;;;;14.82;7.80;;;;;;;;;;4099022;28;20066;-80
2021/10/11 00:59:14;;;;;;;18.73;7.85;;;;;;;;;;4117874;28;20042;-78
2021/10/11 01:01:15;;;;;;;18.52;7.47;;;;;;;;;;4130957;28;20046;-79
2021/10/11 01:03:16;;;;;;;19.42;7.97;;;;;;;;;;4131806;28;20142;-80
2021/10/11 01:05:17;;;;;;;15.02;7.32;;;;;;;;;;4129511;28;20066;-79
2021/10/11 01:07:18;;;;;;;14.30;7.40;;;;;;;;;;4126597;28;20394;-79
2021/10/11 01:09:19;;;;;;;16.90;7.85;;;;;;;;;;4114101;28;20489;-80
2021/10/11 01:11:20;;;;;;;26.35;7.97;;;;;;;;;;4123706;28;20137;-79
2021/10/11 01:13:21;;;;;;;21.42;8.35;;;;;;;;;;4107734;28;20768;-79
2021/10/11 01:15:23;;;;;;;20.80;8.65;;;;;;;;;;4130966;28;20118;-79
2021/10/11 01:17:24;;;;;;;13.57;7.10;;;;;;;;;;4091720;28;20039;-78
2021/10/11 01:19:25;;;;;;;19.23;8.70;;;;;;;;;;4087636;28;20036;-77
2021/10/11 01:21:27;;;;;;;19.70;7.93;;;;;;;;;;4112062;28;20581;-78
2021/10/11 01:23:28;;;;;;;16.35;7.43;;;;;;;;;;4122728;28;20582;-80
2021/10/11 01:25:29;;;;;;;17.13;6.95;;;;;;;;;;4113818;28;20112;-79
2021/10/11 01:27:30;;;;;;;18.48;8.60;;;;;;;;;;4103092;28;20057;-79
2021/10/11 01:29:31;;;;;;;27.13;7.85;;;;;;;;;;4124539;28;20057;-79
2021/10/11 01:31:33;;;;;;;19.73;9.07;;;;;;;;;;4114803;28;20551;-78
2021/10/11 01:33:35;;;;;;;20.67;9.10;;;;;;;;;;4099693;28;20038;-78
2021/10/11 01:35:36;;;;;;;24.42;8.20;;;;;;;;;;4130656;28;20034;-78
2021/10/11 01:37:37;;;;;;;18.00;7.32;;;;;;;;;;4113265;28;20148;-78
2021/10/11 01:39:38;;;;;;;19.33;7.43;;;;;;;;;;4112291;28;20038;-77
2021/10/11 01:41:40;;;;;;;17.17;6.55;;;;;;;;;;4113805;28;20106;-79
2021/10/11 01:43:41;;;;;;;21.80;7.03;;;;;;;;;;4127861;28;20048;-79
2021/10/11 01:45:47;;;;;;;18.25;8.20;;;;;;;;;;4126928;28;20089;-78
2021/10/11 01:47:48;;;;;;;22.23;7.60;;;;;;;;;;4114809;28;20034;-79
2021/10/11 01:49:49;;;;;;;15.80;7.28;;;;;;;;;;4111493;28;20050;-80
2021/10/11 01:51:50;;;;;;;15.82;7.80;;;;;;;;;;4099729;28;20388;-79
2021/10/11 01:53:51;;;;;;;21.52;8.18;;;;;;;;;;4108324;28;20600;-78
2021/10/11 01:55:52;;;;;;;17.48;7.50;;;;;;;;;;4114804;28;20030;-79
2021/10/11 01:57:54;;;;;;;12.95;6.95;;;;;;;;;;4113675;28;20672;-79
2021/10/11 01:59:55;;;;;;;20.00;7.53;;;;;;;;;;4132827;28;20371;-78
2021/10/11 02:01:56;;;;;;;27.50;9.52;;;;;;;;;;4102404;28;20438;-78
2021/10/11 02:03:57;;;;;;;21.23;6.97;;;;;;;;;;4122578;28;20425;-79
2021/10/11 02:05:59;;;;;;;26.55;8.07;;;;;;;;;;4113853;28;20560;-79
2021/10/11 02:08:00;;;;;;;20.88;7.90;;;;;;;;;;4114577;28;20503;-76
2021/10/11 02:10:02;;;;;;;21.75;7.97;;;;;;;;;;4109516;28;20050;-78
2021/10/11 02:12:03;;;;;;;20.20;6.95;;;;;;;;;;4131612;28;20046;-79
2021/10/11 02:14:04;;;;;;;22.23;8.35;;;;;;;;;;4129352;28;20426;-79
2021/10/11 02:16:05;;;;;;;16.50;7.80;;;;;;;;;;4100099;28;20558;-78
2021/10/11 02:18:07;;;;;;;25.23;7.20;;;;;;;;;;4113959;28;20390;-78
2021/10/11 02:20:09;;;;;;;20.95;7.63;;;;;;;;;;4110978;28;20073;-78
2021/10/11 02:22:10;;;;;;;22.90;7.43;;;;;;;;;;4115238;28;20079;-78
2021/10/11 02:24:11;;;;;;;24.50;7.28;;;;;;;;;;4111787;28;20035;-78
2021/10/11 02:26:12;;;;;;;20.17;9.23;;;;;;;;;;4112747;28;20514;-78
2021/10/11 02:28:14;;;;;;;25.17;7.32;;;;;;;;;;4127693;28;20027;-78
2021/10/11 02:30:15;;;;;;;20.02;7.55;;;;;;;;;;4114842;28;20070;-78
2021/10/11 02:32:16;;;;;;;16.38;7.20;;;;;;;;;;4122102;28;20031;-79
2021/10/11 02:34:17;;;;;;;24.58;7.50;;;;;;;;;;4126604;28;20045;-79
2021/10/11 02:36:18;;;;;;;22.45;7.57;;;;;;;;;;4125917;28;20372;-79
2021/10/11 02:38:19;;;;;;;21.83;7.25;;;;;;;;;;4113105;28;20512;-77
2021/10/11 02:40:21;;;;;;;23.63;6.97;;;;;;;;;;4124384;28;20061;-78
2021/10/11 02:42:22;;;;;;;23.13;7.30;;;;;;;;;;4099067;28;20510;-78
2021/10/11 02:44:24;;;;;;;20.73;7.60;;;;;;;;;;4111819;28;20030;-79
2021/10/11 02:46:25;;;;;;;20.45;8.65;;;;;;;;;;4115509;28;20509;-78
2021/10/11 02:48:26;;;;;;;19.40;8.25;;;;;;;;;;4105401;28;20540;-78
2021/10/11 02:50:27;;;;;;;16.98;7.90;;;;;;;;;;4123072;28;20050;-78
2021/10/11 02:52:31;;;;;;;24.48;7.68;;;;;;;;;;4113813;28;20414;-78
2021/10/11 02:54:33;;;;;;;25.95;7.47;;;;;;;;;;4110800;28;20043;-77
2021/10/11 02:56:34;;;;;;;15.80;7.38;;;;;;;;;;4113832;28;20121;-79
2021/10/11 02:58:35;;;;;;;20.98;7.40;;;;;;;;;;4114277;28;20524;-79
2021/10/11 03:00:36;;;;;;;18.58;7.47;;;;;;;;;;4114141;28;20478;-80
2021/10/11 03:02:38;;;;;;;20.77;8.25;;;;;;;;;;4114201;28;20097;-79
2021/10/11 03:04:39;;;;;;;21.65;7.68;;;;;;;;;;4112896;28;20082;-79
2021/10/11 03:06:40;;;;;;;25.48;7.50;;;;;;;;;;4115622;28;20504;-78
2021/10/11 03:08:41;;;;;;;13.93;7.25;;;;;;;;;;4112770;28;20038;-80
2021/10/11 03:10:42;;;;;;;16.63;6.75;;;;;;;;;;4124600;28;20038;-79
2021/10/11 03:12:43;;;;;;;21.45;7.70;;;;;;;;;;4096840;28;20533;-79
2021/10/11 03:14:44;;;;;;;14.68;6.90;;;;;;;;;;4114770;28;20039;-79
2021/10/11 03:16:45;;;;;;;20.25;7.50;;;;;;;;;;4110683;28;20027;-79
2021/10/11 03:18:48;;;;;;;24.08;7.60;;;;;;;;;;4121420;28;20120;-79
2021/10/11 03:20:50;;;;;;;19.42;7.95;;;;;;;;;;4112891;28;20815;-79
2021/10/11 03:22:51;;;;;;;23.33;9.40;;;;;;;;;;4130521;28;20037;-79
2021/10/11 03:24:53;;;;;;;18.08;7.13;;;;;;;;;;4107137;28;20562;-79
2021/10/11 03:26:54;;;;;;;22.00;6.97;;;;;;;;;;4094719;28;20098;-79
2021/10/11 03:28:56;;;;;;;20.70;6.78;;;;;;;;;;4097105;28;20043;-79
2021/10/11 03:30:57;;;;;;;14.80;7.88;;;;;;;;;;4124003;28;20402;-79
2021/10/11 03:32:58;;;;;;;19.27;6.68;;;;;;;;;;4114535;28;20058;-78
2021/10/11 03:34:59;;;;;;;24.00;7.88;;;;;;;;;;4118268;28;20046;-78
2021/10/11 03:37:00;;;;;;;21.80;8.15;;;;;;;;;;4094739;28;20057;-79
2021/10/11 03:39:02;;;;;;;27.42;7.55;;;;;;;;;;4128057;28;21625;-77
2021/10/11 03:41:03;;;;;;;18.38;6.57;;;;;;;;;;4105967;28;20039;-78
2021/10/11 03:43:04;;;;;;;17.73;7.00;;;;;;;;;;4125086;28;20044;-79
2021/10/11 03:45:06;;;;;;;19.10;6.82;;;;;;;;;;4113931;28;20459;-79
2021/10/11 03:47:07;;;;;;;18.33;7.70;;;;;;;;;;4095508;28;20035;-80
2021/10/11 03:49:08;;;;;;;20.90;6.95;;;;;;;;;;4111564;28;20066;-79
2021/10/11 03:51:09;;;;;;;24.33;7.80;;;;;;;;;;4100710;28;20130;-79
2021/10/11 03:53:10;;;;;;;20.60;7.50;;;;;;;;;;4123688;28;20038;-79
2021/10/11 03:55:11;;;;;;;22.63;7.03;;;;;;;;;;4111536;28;20050;-80
2021/10/11 03:57:13;;;;;;;25.02;8.43;;;;;;;;;;4105261;28;20046;-74
2021/10/11 03:59:14;;;;;;;20.75;7.60;;;;;;;;;;4111773;28;20113;-77
2021/10/11 04:01:15;;;;;;;16.65;6.75;;;;;;;;;;4127905;28;20065;-78
2021/10/11 04:03:16;;;;;;;27.60;8.82;;;;;;;;;;4111528;28;20034;-79
2021/10/11 04:05:18;;;;;;;23.60;7.40;;;;;;;;;;4127360;28;20038;-79
2021/10/11 04:07:19;;;;;;;16.92;6.75;;;;;;;;;;4126976;28;20609;-77
2021/10/11 04:09:26;;;;;;;18.35;7.28;;;;;;;;;;4111223;28;20097;-78
2021/10/11 04:11:29;;;;;;;13.57;6.18;;;;;;;;;;4138758;28;20092;-78
2021/10/11 04:13:31;;;;;;;19.48;6.90;;;;;;;;;;4120631;28;20142;-79
2021/10/11 04:15:32;;;;;;;20.75;7.30;;;;;;;;;;4109648;28;20035;-78
2021/10/11 04:17:37;;;;;;;15.27;6.50;;;;;;;;;;4122456;28;20046;-78
2021/10/11 04:19:39;;;;;;;22.45;8.20;;;;;;;;;;4126490;28;20108;-79
2021/10/11 04:21:42;;;;;;;17.30;7.07;;;;;;;;;;4130492;28;20042;-78
2021/10/11 04:23:43;;;;;;;20.15;7.30;;;;;;;;;;4130051;28;20113;-79
2021/10/11 04:25:45;;;;;;;21.38;7.53;;;;;;;;;;4099192;28;20119;-79
2021/10/11 04:27:46;;;;;;;15.95;6.70;;;;;;;;;;4123743;28;20084;-78
2021/10/11 04:29:47;;;;;;;18.58;7.10;;;;;;;;;;4114621;28;20042;-79
2021/10/11 04:31:48;;;;;;;21.90;7.18;;;;;;;;;;4115116;28;20481;-78
2021/10/11 04:33:49;;;;;;;21.70;7.00;;;;;;;;;;4113647;28;20053;-78
2021/10/11 04:35:51;;;;;;;20.10;6.57;;;;;;;;;;4115437;28;20046;-79
2021/10/11 04:37:52;;;;;;;20.80;7.63;;;;;;;;;;4113447;28;20141;-76
2021/10/11 04:39:53;;;;;;;19.60;7.07;;;;;;;;;;4115700;28;20038;-79
2021/10/11 04:41:55;;;;;;;21.13;7.80;;;;;;;;;;4127291;28;20027;-80
2021/10/11 04:43:56;;;;;;;18.83;7.05;;;;;;;;;;4116240;28;20518;-77
2021/10/11 04:45:57;;;;;;;41.47;7.70;;;;;;;;;;4115268;28;20081;-77
2021/10/11 04:48:04;;;;;;;12.40;6.88;;;;;;;;;;4115186;28;20047;-78
2021/10/11 04:50:05;;;;;;;12.07;6.18;;;;;;;;;;4130696;28;20639;-78
2021/10/11 04:52:07;;;;;;;21.58;7.97;;;;;;;;;;4108616;28;20039;-77
2021/10/11 04:54:09;;;;;;;24.58;7.72;;;;;;;;;;4115383;28;20059;-78
2021/10/11 04:56:11;;;;;;;;;;;;;;;;;;4123287;28;20047;-78
2021/10/11 04:58:12;;;;;;;21.75;7.50;;;;;;;;;;4122077;28;19922;-79
2021/10/11 05:00:14;;;;;;;18.92;6.18;;;;;;;;;;4127391;28;20485;-76
2021/10/11 05:02:15;;;;;;;16.75;7.75;;;;;;;;;;4130155;28;20042;-79
2021/10/11 05:04:16;;;;;;;27.83;7.30;;;;;;;;;;4099317;28;20035;-80
2021/10/11 05:06:17;;;;;;;21.58;6.65;;;;;;;;;;4115201;28;20054;-79
2021/10/11 05:08:18;;;;;;;18.52;7.00;;;;;;;;;;4127178;28;20113;-77
2021/10/11 05:10:19;;;;;;;18.83;6.65;;;;;;;;;;4116263;28;20042;-78
2021/10/11 05:12:21;;;;;;;22.73;7.95;;;;;;;;;;4113441;28;20050;-79
2021/10/11 05:14:22;;;;;;;22.60;9.98;;;;;;;;;;4132426;28;20105;-79
2021/10/11 05:16:24;;;;;;;22.73;10.68;;;;;;;;;;4110230;28;20123;-78
2021/10/11 05:18:25;;;;;;;16.05;7.88;;;;;;;;;;4106441;28;20187;-78
2021/10/11 05:20:27;;;;;;;21.95;7.28;;;;;;;;;;4115930;28;20896;-77
2021/10/11 05:22:29;;;;;;;17.60;7.47;;;;;;;;;;4116604;28;20114;-78
2021/10/11 05:24:30;;;;;;;22.50;8.55;;;;;;;;;;4098954;28;20043;-78
2021/10/11 05:26:31;;;;;;;18.65;7.85;;;;;;;;;;4114359;28;20041;-77
2021/10/11 05:28:32;;;;;;;23.75;8.20;;;;;;;;;;4126461;28;20125;-78
2021/10/11 05:30:33;;;;;;;20.90;7.50;;;;;;;;;;4113840;28;20031;-77
2021/10/11 05:32:35;;;;;;;21.38;7.68;;;;;;;;;;4125784;28;20153;-77
2021/10/11 05:34:37;;;;;;;28.20;7.47;;;;;;;;;;4111323;28;20054;-78
2021/10/11 05:36:38;;;;;;;21.00;7.28;;;;;;;;;;4107382;28;20502;-78
2021/10/11 05:38:39;;;;;;;19.42;7.13;;;;;;;;;;4113030;28;20052;-78
2021/10/11 05:40:40;;;;;;;25.23;7.07;;;;;;;;;;4128043;28;20038;-78
2021/10/11 05:42:41;;;;;;;24.75;8.50;;;;;;;;;;4127022;28;20042;-76
2021/10/11 05:44:43;;;;;;;16.42;7.57;;;;;;;;;;4115023;28;20129;-78
2021/10/11 05:46:44;;;;;;;19.08;7.18;;;;;;;;;;4126643;28;20429;-78
2021/10/11 05:48:46;;;;;;;17.45;6.85;;;;;;;;;;4115638;28;20121;-78
2021/10/11 05:50:47;;;;;;;20.52;7.07;;;;;;;;;;4125096;28;20647;-78
2021/10/11 05:52:48;;;;;;;15.95;7.03;;;;;;;;;;4113287;28;20062;-77
2021/10/11 05:54:49;;;;;;;27.23;7.20;;;;;;;;;;4115202;28;20043;-77
2021/10/11 05:56:50;;;;;;;15.40;6.65;;;;;;;;;;4114851;28;20034;-79
2021/10/11 05:58:51;;;;;;;18.00;6.95;;;;;;;;;;4097269;28;20047;-79
2021/10/11 06:00:52;;;;;;;17.73;7.20;;;;;;;;;;4115125;28;20039;-79
2021/10/11 06:02:54;;;;;;;17.65;7.38;;;;;;;;;;4127246;28;20526;-79
2021/10/11 06:04:55;;;;;;;23.40;7.18;;;;;;;;;;4116298;28;20494;-77
2021/10/11 06:06:56;;;;;;;21.45;7.22;;;;;;;;;;4128128;28;20524;-77
2021/10/11 06:08:57;;;;;;;21.20;7.90;;;;;;;;;;4117313;28;20058;-78
2021/10/11 06:10:58;;;;;;;21.30;6.72;;;;;;;;;;4111033;28;20047;-78
2021/10/11 06:13:00;;;;;;;16.25;7.28;;;;;;;;;;4113081;28;20038;-78
2021/10/11 06:15:01;;;;;;;16.75;7.25;;;;;;;;;;4113826;28;20043;-78
2021/10/11 06:17:02;;;;;;;18.73;7.85;;;;;;;;;;4105936;28;20039;-78
2021/10/11 06:19:03;;;;;;;17.67;6.95;;;;;;;;;;4098233;28;20043;-78
2021/10/11 06:21:04;;;;;;;14.38;7.03;;;;;;;;;;4107071;28;20058;-78
2021/10/11 06:23:06;;;;;;;19.10;7.20;;;;;;;;;;4113906;28;20050;-78
2021/10/11 06:25:08;;;;;;;20.23;7.30;;;;;;;;;;4122109;28;20493;-78
2021/10/11 06:27:09;;;;;;;30.77;8.63;;;;;;;;;;4117529;28;20054;-79
2021/10/11 06:29:10;;;;;;;21.40;8.77;;;;;;;;;;4110824;28;20565;-77
2021/10/11 06:31:11;;;;;;;26.80;9.27;;;;;;;;;;4096665;29;20089;-79
2021/10/11 06:33:13;;;;;;;22.05;8.88;;;;;;;;;;4112019;28;20514;-78
2021/10/11 06:35:14;;;;;;;18.17;8.52;;;;;;;;;;4113167;28;20423;-79
2021/10/11 06:37:16;;;;;;;21.42;8.43;;;;;;;;;;4114771;28;20444;-79
2021/10/11 06:39:17;;;;;;;21.05;9.38;;;;;;;;;;4129236;28;20110;-79
2021/10/11 06:41:18;;;;;;;21.98;8.90;;;;;;;;;;4111773;28;20521;-79
2021/10/11 06:43:19;;;;;;;21.08;8.85;;;;;;;;;;4104562;28;20081;-79
2021/10/11 06:45:20;;;;;;;22.92;8.68;;;;;;;;;;4116134;28;20429;-78
2021/10/11 06:47:22;;;;;;;22.60;7.38;;;;;;;;;;4107322;28;20125;-77
2021/10/11 06:49:23;;;;;;;22.05;8.05;;;;;;;;;;4102130;28;20057;-77
2021/10/11 06:51:24;;;;;;;20.73;7.78;;;;;;;;;;4103048;28;20040;-78
2021/10/11 06:53:25;;;;;;;20.63;8.20;;;;;;;;;;4103000;28;20093;-78
2021/10/11 06:55:26;;;;;;;22.80;8.05;;;;;;;;;;4121164;28;20474;-77
2021/10/11 06:57:27;;;;;;;22.48;8.70;;;;;;;;;;4128523;28;20041;-78
2021/10/11 06:59:28;;;;;;;18.33;9.98;;;;;;;;;;4110245;28;20707;-79
2021/10/11 07:01:30;;;;;;;23.30;9.57;;;;;;;;;;4100346;28;20058;-79
2021/10/11 07:03:32;;;;;;;22.65;7.82;;;;;;;;;;4111850;28;20097;-79
2021/10/11 07:05:33;;;;;;;30.05;11.20;;;;;;;;;;4100471;28;20035;-80
2021/10/11 07:07:35;;;;;;;25.70;9.65;;;;;;;;;;4122890;28;20051;-80
2021/10/11 07:09:36;;;;;;;25.00;8.43;;;;;;;;;;4112727;28;20034;-79
2021/10/11 07:11:37;;;;;;;21.65;9.25;;;;;;;;;;4111636;28;20045;-79
2021/10/11 07:13:38;;;;;;;28.05;9.05;;;;;;;;;;4113401;28;20590;-80
2021/10/11 07:15:40;;;;;;;30.63;10.05;;;;;;;;;;4113020;28;20128;-80
2021/10/11 07:17:41;;;;;;;24.20;8.38;;;;;;;;;;4095015;28;20043;-79
2021/10/11 07:19:46;;;;;;;23.75;8.07;;;;;;;;;;4102247;28;20435;-79
2021/10/11 07:21:47;;;;;;;18.50;7.28;;;;;;;;;;4120439;28;20414;-77
2021/10/11 07:23:48;;;;;;;25.38;8.40;;;;;;;;;;4126306;28;20061;-80
2021/10/11 07:25:50;;;;;;;19.10;7.20;;;;;;;;;;4110987;28;20046;-75
2021/10/11 07:27:51;;;;;;;20.92;8.07;;;;;;;;;;4108631;28;20126;-79
2021/10/11 07:29:52;;;;;;;14.10;6.82;;;;;;;;;;4104673;28;20045;-78
2021/10/11 07:31:53;;;;;;;23.25;7.72;;;;;;;;;;4115939;28;20034;-79
2021/10/11 07:33:54;;;;;;;21.80;7.18;;;;;;;;;;4102688;28;20081;-78
2021/10/11 07:35:55;;;;;;;20.52;7.40;;;;;;;;;;4106779;28;20387;-79
2021/10/11 07:37:56;;;;;;;29.48;7.20;;;;;;;;;;4116035;28;20057;-79
2021/10/11 07:39:57;;;;;;;18.88;6.63;;;;;;;;;;4102088;28;20045;-78
2021/10/11 07:42:00;;;;;;;21.52;7.70;;;;;;;;;;4121085;28;20477;-78
2021/10/11 07:44:01;;;;;;;18.98;7.47;;;;;;;;;;4102538;28;20090;-78
2021/10/11 07:46:03;;;;;;;24.30;8.68;;;;;;;;;;4103954;28;20054;-78
2021/10/11 07:48:04;;;;;;;21.42;7.13;;;;;;;;;;4101158;28;20046;-78
2021/10/11 07:50:07;;;;;;;26.23;6.50;;;;;;;;;;4107748;28;20592;-80
2021/10/11 07:52:08;;;;;;;18.95;7.50;;;;;;;;;;4111252;28;20057;-80
2021/10/11 07:54:09;;;;;;;18.83;6.95;;;;;;;;;;4114760;28;20125;-79
2021/10/11 07:56:11;;;;;;;26.85;7.65;;;;;;;;;;4112111;28;20525;-79
2021/10/11 07:58:12;;;;;;;15.27;6.63;;;;;;;;;;4111299;28;20042;-78
2021/10/11 08:00:17;;;;;;;21.90;6.80;;;;;;;;;;4106548;28;20050;-79
2021/10/11 08:02:18;;;;;;;23.55;8.05;;;;;;;;;;4094895;28;20031;-80
2021/10/11 08:04:19;;;;;;;26.63;7.93;;;;;;;;;;4096997;28;20054;-79
2021/10/11 08:06:20;;;;;;;20.92;7.22;;;;;;;;;;4108586;28;20550;-80
2021/10/11 08:08:21;;;;;;;22.25;6.97;;;;;;;;;;4112332;28;20039;-78
2021/10/11 08:10:22;;;;;;;21.08;7.15;;;;;;;;;;4111332;28;20469;-79
2021/10/11 08:12:23;;;;;;;23.52;7.82;;;;;;;;;;4111861;28;20151;-78
2021/10/11 08:14:24;;;;;;;24.23;7.57;;;;;;;;;;4108334;28;20570;-78
2021/10/11 08:16:26;;;;;;;20.23;6.57;;;;;;;;;;4114542;28;20030;-79
2021/10/11 08:18:27;;;;;;;19.75;6.35;;;;;;;;;;4107400;28;20047;-79
2021/10/11 08:20:28;;;;;;;16.45;6.15;;;;;;;;;;4110750;28;20341;-79
2021/10/11 08:22:29;;;;;;;17.42;6.00;;;;;;;;;;4110441;28;20039;-78
2021/10/11 08:24:31;;;;;;;22.25;6.60;;;;;;;;;;4114504;28;20038;-78
2021/10/11 08:26:34;;;;;;;23.73;6.38;;;;;;;;;;4112365;28;20043;-79
2021/10/11 08:28:36;;;;;;;;;;;;;;;;;;4096478;28;20102;-78
2021/10/11 08:30:37;;;;;;;22.20;6.38;;;;;;;;;;4113128;28;19960;-78
2021/10/11 08:32:38;;;;;;;17.33;6.20;;;;;;;;;;4098729;28;20062;-79
2021/10/11 08:34:40;;;;;;;17.00;5.63;;;;;;;;;;4098274;28;20039;-76
2021/10/11 08:36:41;;;;;;;28.10;6.65;;;;;;;;;;4083150;28;20138;-78
2021/10/11 08:38:43;;;;;;;19.08;6.15;;;;;;;;;;4099139;28;20397;-79
2021/10/11 08:40:47;;;;;;;11.18;4.35;;;;;;;;;;4097205;28;20078;-75
2021/10/11 08:42:51;;;;;;;21.73;5.90;;;;;;;;;;4099435;28;20136;-79
2021/10/11 08:44:53;;;;;;;20.05;5.78;;;;;;;;;;4099004;28;20041;-77
2021/10/11 08:46:54;;;;;;;16.05;5.97;;;;;;;;;;4100465;28;20035;-78
2021/10/11 08:48:55;;;;;;;18.98;6.75;;;;;;;;;;4096772;28;20123;-79
2021/10/11 08:50:56;;;;;;;31.30;8.50;;;;;;;;;;4087440;28;20404;-78
2021/10/11 08:52:59;;;;;;;16.23;5.97;;;;;;;;;;4108392;28;20117;-78
2021/10/11 08:55:00;;;;;;;24.58;7.28;;;;;;;;;;4102533;28;20040;-78
2021/10/11 08:57:04;;;;;;;13.95;4.93;;;;;;;;;;4113224;28;20138;-77
2021/10/11 08:59:05;;;;;;;15.98;5.32;;;;;;;;;;4111715;28;20486;-79
2021/10/11 09:01:07;;;;;;;20.00;7.00;;;;;;;;;;4109246;28;20043;-79
2021/10/11 09:03:10;;;;;;;17.20;5.75;;;;;;;;;;4111539;28;20042;-78
2021/10/11 09:05:22;;;;;;;18.10;5.20;;;;;;;;;;4111351;28;20047;-79
2021/10/11 09:07:25;;;;;;;24.05;5.60;;;;;;;;;;4106283;28;20078;-78
2021/10/11 09:09:26;;;;;;;14.27;5.13;;;;;;;;;;4114055;28;20043;-79
2021/10/11 09:11:29;;;;;;;14.75;5.07;;;;;;;;;;4115424;28;20438;-78
2021/10/11 09:13:43;;;;;;;16.17;4.55;;;;;;;;;;4130074;28;20084;-78
2021/10/11 09:15:49;;;;;;;19.17;4.75;;;;;;;;;;4131027;28;20117;-78
2021/10/11 09:17:54;;;;;;;10.65;4.45;;;;;;;;;;4115111;28;20043;-79
2021/10/11 09:19:58;;;;;;;11.77;4.70;;;;;;;;;;4100123;28;20498;-78
2021/10/11 09:21:59;;;;;;;16.08;3.97;;;;;;;;;;4113612;28;20128;-78
2021/10/11 09:24:11;;;;;;;15.27;5.22;;;;;;;;;;4115734;28;20050;-78
2021/10/11 09:26:21;;;;;;;14.10;5.00;;;;;;;;;;4126911;28;20549;-77
2021/10/11 09:28:22;;;;;;;13.82;4.38;;;;;;;;;;4110241;28;20053;-77
2021/10/11 09:30:29;;;;;;;14.38;4.40;;;;;;;;;;4114738;28;20454;-76
2021/10/11 09:32:30;;;;;;;10.50;4.18;;;;;;;;;;4110018;28;20487;-76
2021/10/11 09:34:32;;;;;;;10.43;4.30;;;;;;;;;;4107360;28;20038;-78
2021/10/11 09:36:34;;;;;;;13.40;4.15;;;;;;;;;;4127123;28;20034;-78
2021/10/11 09:38:35;;;;;;;11.00;4.72;;;;;;;;;;4114879;28;20133;-78
2021/10/11 09:40:40;;;;;;;9.43;3.72;;;;;;;;;;4111959;28;20450;-77
2021/10/11 09:42:41;;;;;;;14.43;4.80;;;;;;;;;;4115560;28;20509;-78
2021/10/11 09:44:52;;;;;;;13.98;4.03;;;;;;;;;;4084758;28;20467;-78
2021/10/11 09:46:57;;;;;;;9.80;3.70;;;;;;;;;;4128862;28;20034;-77
2021/10/11 09:48:59;;;;;;;14.07;4.63;;;;;;;;;;4113902;28;20131;-77
2021/10/11 09:51:01;;;;;;;11.23;4.57;;;;;;;;;;4116563;28;20737;-77
2021/10/11 09:53:08;;;;;;;14.40;3.95;;;;;;;;;;4109220;28;20035;-77
2021/10/11 09:55:12;;;;;;;9.18;4.82;;;;;;;;;;4122496;28;20042;-76
2021/10/11 09:57:13;;;;;;;10.32;3.47;;;;;;;;;;4100348;28;20039;-76
2021/10/11 09:59:16;;;;;;;16.45;4.93;;;;;;;;;;4109227;28;20450;-77
2021/10/11 10:01:17;;;;;;;13.47;3.97;;;;;;;;;;4116917;28;20085;-77
2021/10/11 10:03:19;;;;;;;15.48;3.95;;;;;;;;;;4120630;28;20278;-78
2021/10/11 10:05:35;;;;;;;17.02;4.43;;;;;;;;;;4117916;28;20118;-77
2021/10/11 10:07:39;;;;;;;12.88;4.20;;;;;;;;;;4129686;28;20038;-77
2021/10/11 10:09:44;;;;;;;16.65;4.60;;;;;;;;;;4129475;28;20050;-77
2021/10/11 10:11:45;;;;;;;13.60;4.18;;;;;;;;;;4113741;28;20118;-76
2021/10/11 10:13:48;;;;;;;9.68;3.72;;;;;;;;;;4121719;28;20104;-76
2021/10/11 10:15:49;;;;;;;12.18;4.10;;;;;;;;;;4129819;28;20046;-77
2021/10/11 10:18:08;;;;;;;19.58;5.90;;;;;;;;;;4110636;28;20079;-77
2021/10/11 10:20:13;;;;;;;13.57;3.97;;;;;;;;;;4124346;28;20038;-77
2021/10/11 10:22:15;;;;;;;12.57;3.47;;;;;;;;;;4131047;28;20519;-79
2021/10/11 10:24:25;;;;;;;12.27;4.05;;;;;;;;;;4129685;28;20039;-80
2021/10/11 10:26:35;;;;;;;13.75;3.45;;;;;;;;;;4109560;28;20423;-77
2021/10/11 10:28:44;;;;;;;11.07;4.70;;;;;;;;;;4109555;28;20039;-77
2021/10/11 10:31:02;;;;;;;12.32;4.93;;;;;;;;;;4109465;28;20035;-78
2021/10/11 10:33:05;;;;;;;15.80;4.57;;;;;;;;;;4129373;28;20401;-77
2021/10/11 10:35:07;;;;;;;9.60;3.53;;;;;;;;;;4127854;28;20038;-78
2021/10/11 10:37:10;;;;;;;10.32;3.67;;;;;;;;;;4114905;28;20043;-77
2021/10/11 10:39:14;;;;;;;14.43;4.75;;;;;;;;;;4112244;28;20039;-77
2021/10/11 10:41:21;;;;;;;10.15;3.38;;;;;;;;;;4113222;28;20027;-74
2021/10/11 10:43:22;;;;;;;8.63;3.60;;;;;;;;;;4097490;28;20055;-75
2021/10/11 10:45:24;;;;;;;15.48;4.88;;;;;;;;;;4113804;28;20054;-76
2021/10/11 10:47:36;;;;;;;10.68;2.65;;;;;;;;;;4112340;28;20494;-73
2021/10/11 10:49:40;;;;;;;10.17;3.47;;;;;;;;;;4108952;28;20054;-76
2021/10/11 10:51:44;;;;;;;15.52;3.70;;;;;;;;;;4116604;28;20490;-78
2021/10/11 10:53:58;;;;;;;13.73;3.92;;;;;;;;;;4114071;28;20043;-77
2021/10/11 10:55:59;;;;;;;9.18;2.83;;;;;;;;;;4114655;28;20050;-78
2021/10/11 10:58:02;;;;;;;13.60;3.45;;;;;;;;;;4111687;28;20129;-76
2021/10/11 11:00:13;;;;;;;;;;;;;;;;;;4112113;28;20221;-78
2021/10/11 11:02:15;;;;;;;14.00;2.75;;;;;;;;;;4127933;28;19917;-77
2021/10/11 11:04:22;;;;;;;7.75;3.30;;;;;;;;;;4123757;28;20035;-76
2021/10/11 11:06:28;;;;;;;7.30;2.40;;;;;;;;;;4113597;28;20066;-77
2021/10/11 11:08:29;;;;;;;11.27;2.80;;;;;;;;;;4112348;28;20049;-78
2021/10/11 11:10:35;;;;;;;10.60;2.40;;;;;;;;;;4095477;28;20097;-76
2021/10/11 11:12:37;;;;;;;9.55;2.97;;;;;;;;;;4129111;28;20042;-77
2021/10/11 11:14:43;;;;;;;6.45;2.45;;;;;;;;;;4116351;28;20026;-77
2021/10/11 11:16:50;;;;;;;10.90;3.25;;;;;;;;;;4113308;28;20581;-76
2021/10/11 11:18:54;;;;;;;9.73;3.25;;;;;;;;;;4113609;28;20043;-77
2021/10/11 11:20:56;;;;;;;7.80;3.05;;;;;;;;;;4111647;28;20044;-79
2021/10/11 11:23:02;;;;;;;10.23;2.90;;;;;;;;;;4127691;28;20042;-78
2021/10/11 11:25:05;;;;;;;11.80;3.40;;;;;;;;;;4119893;28;20093;-79
2021/10/11 11:27:06;;;;;;;5.93;1.83;;;;;;;;;;4097504;28;20533;-77
2021/10/11 11:29:07;;;;;;;11.15;3.15;;;;;;;;;;4110468;28;20883;-77
2021/10/11 11:31:10;;;;;;;8.98;3.13;;;;;;;;;;4106666;28;20035;-79
2021/10/11 11:33:14;;;;;;;9.48;2.33;;;;;;;;;;4128819;28;20065;-79
2021/10/11 11:35:23;;;;;;;5.60;2.25;;;;;;;;;;4112323;28;20043;-78
2021/10/11 11:37:24;;;;;;;9.15;2.50;;;;;;;;;;4129274;28;20082;-78
2021/10/11 11:39:27;;;;;;;9.50;2.25;;;;;;;;;;4113077;28;20764;-76
2021/10/11 11:41:29;;;;;;;9.50;2.70;;;;;;;;;;4126968;28;20156;-76
2021/10/11 11:43:39;;;;;;;9.15;2.70;;;;;;;;;;4113100;28;20382;-76
2021/10/11 11:45:44;;;;;;;5.22;2.28;;;;;;;;;;4108224;28;20530;-77
2021/10/11 11:47:45;;;;;;;12.23;3.40;;;;;;;;;;4123764;28;20046;-78
2021/10/11 11:49:48;;;;;;;7.95;3.35;;;;;;;;;;4111859;28;20043;-78
2021/10/11 11:51:49;;;;;;;8.45;2.38;;;;;;;;;;4111253;28;20035;-79
2021/10/11 11:53:50;;;;;;;11.85;3.20;;;;;;;;;;4113755;28;20090;-78
2021/10/11 11:55:53;;;;;;;5.32;2.33;;;;;;;;;;4109602;28;20035;-79
2021/10/11 11:57:56;;;;;;;5.03;2.35;;;;;;;;;;4112380;28;20027;-79
2021/10/11 11:59:57;;;;;;;14.93;3.60;;;;;;;;;;4124082;28;20057;-79
2021/10/11 12:02:02;;;;;;;11.18;2.22;;;;;;;;;;4127027;28;20041;-78